Time,TemperatureF,DewpointF,PressureIn,WindDirection,WindDirectionDegrees,WindSpeedMPH,WindSpeedGustMPH,Humidity,HourlyPrecipIn,Conditions,Clouds,dailyrainin,SolarRadiationWatts/m^2,SoftwareType,DateUTC
2013-01-11 00:02:00,13.0,10.0,-100.00,SW,233,20.0,24.0,89,-99.99,,,-99.99,0.000000,,2013-01-11 07:02:00,
2013-01-11 00:11:00,13.0,10.0,-100.00,WSW,242,20.0,23.0,89,-99.99,,,-99.99,0.000000,,2013-01-11 07:11:00,
2013-01-11 00:32:00,13.0,10.0,-100.00,SW,235,18.0,22.0,89,-99.99,,,-99.99,0.000000,,2013-01-11 07:32:00,
2013-01-11 00:42:00,13.0,10.0,-100.00,SW,234,19.0,24.0,89,-99.99,,,-99.99,0.000000,,2013-01-11 07:42:00,
2013-01-11 00:52:00,13.0,10.0,-100.00,SW,236,18.0,23.0,89,-99.99,,,-99.99,0.000000,,2013-01-11 07:52:00,
2013-01-11 01:02:00,12.0,10.0,-100.00,WSW,251,23.0,25.0,89,-99.99,,,-99.99,0.000000,,2013-01-11 08:02:00,
2013-01-11 01:22:00,12.0,10.0,-100.00,WSW,242,20.0,24.0,89,-99.99,,,-99.99,0.000000,,2013-01-11 08:22:00,
2013-01-11 01:32:00,12.0,10.0,-100.00,WSW,242,20.0,24.0,89,-99.99,,,-99.99,0.000000,,2013-01-11 08:32:00,
2013-01-11 01:42:00,12.0,9.0,-100.00,SW,232,19.0,24.0,89,-99.99,,,-99.99,0.000000,,2013-01-11 08:42:00,
2013-01-11 01:52:00,11.0,9.0,-100.00,WSW,243,21.0,25.0,88,-99.99,,,-99.99,0.000000,,2013-01-11 08:52:00,
2013-01-11 02:12:00,11.0,8.0,-100.00,WSW,241,18.0,23.0,88,-99.99,,,-99.99,0.000000,,2013-01-11 09:12:00,
2013-01-11 02:32:00,11.0,8.0,-100.00,SW,236,19.0,23.0,88,-99.99,,,-99.99,0.000000,,2013-01-11 09:32:00,
2013-01-11 02:42:00,10.0,8.0,-100.00,WSW,240,16.0,21.0,88,-99.99,,,-99.99,0.000000,,2013-01-11 09:42:00,
2013-01-11 03:42:00,9.0,7.0,-100.00,WSW,240,21.0,28.0,88,-99.99,,,-99.99,0.000000,,2013-01-11 10:42:00,
2013-01-11 04:02:00,9.0,6.0,-100.00,WSW,237,21.0,29.0,88,-99.99,,,-99.99,0.000000,,2013-01-11 11:02:00,
2013-01-11 04:12:00,9.0,6.0,-100.00,WSW,241,18.0,27.0,88,-99.99,,,-99.99,0.000000,,2013-01-11 11:12:00,
2013-01-11 04:22:00,9.0,6.0,-100.00,WSW,241,18.0,27.0,88,-99.99,,,-99.99,0.000000,,2013-01-11 11:22:00,
2013-01-11 04:32:00,9.0,6.0,-100.00,WSW,239,19.0,24.0,88,-99.99,,,-99.99,0.000000,,2013-01-11 11:32:00,
2013-01-11 04:42:00,9.0,6.0,-100.00,SW,236,17.0,23.0,88,-99.99,,,-99.99,0.000000,,2013-01-11 11:42:00,
2013-01-11 04:52:00,9.0,6.0,-100.00,SW,236,20.0,25.0,88,-99.99,,,-99.99,0.000000,,2013-01-11 11:52:00,
2013-01-11 05:02:00,9.0,6.0,-100.00,WSW,241,20.0,23.0,87,-99.99,,,-99.99,0.000000,,2013-01-11 12:02:00,
2013-01-11 05:12:00,9.0,6.0,-100.00,WSW,241,20.0,23.0,87,-99.99,,,-99.99,0.000000,,2013-01-11 12:12:00,
2013-01-11 05:22:00,9.0,6.0,-100.00,SW,230,18.0,24.0,87,-99.99,,,-99.99,0.000000,,2013-01-11 12:22:00,
2013-01-11 05:42:00,9.0,6.0,-100.00,WSW,250,19.0,25.0,87,-99.99,,,-99.99,0.000000,,2013-01-11 12:42:00,
2013-01-11 05:52:00,9.0,6.0,-100.00,WSW,238,16.0,22.0,87,-99.99,,,-99.99,0.000000,,2013-01-11 12:52:00,
2013-01-11 06:02:00,9.0,6.0,-100.00,SW,233,14.0,17.0,88,-99.99,,,-99.99,0.000000,,2013-01-11 13:02:00,
2013-01-11 06:12:00,9.0,6.0,-100.00,WSW,238,13.0,17.0,88,-99.99,,,-99.99,0.000000,,2013-01-11 13:12:00,
2013-01-11 06:22:00,9.0,6.0,-100.00,WSW,238,13.0,17.0,88,-99.99,,,-99.99,0.000000,,2013-01-11 13:22:00,
2013-01-11 06:32:00,9.0,6.0,-100.00,WSW,244,14.0,18.0,87,-99.99,,,-99.99,0.000000,,2013-01-11 13:32:00,
2013-01-11 06:42:00,9.0,6.0,-100.00,WSW,244,14.0,18.0,87,-99.99,,,-99.99,0.000000,,2013-01-11 13:42:00,
2013-01-11 06:52:00,9.0,6.0,-100.00,WSW,240,16.0,22.0,87,-99.99,,,-99.99,0.000000,,2013-01-11 13:52:00,
2013-01-11 07:02:00,9.0,6.0,-100.00,WSW,252,20.0,23.0,87,-99.99,,,-99.99,0.000000,,2013-01-11 14:02:00,
2013-01-11 07:12:00,9.0,6.0,-100.00,WSW,243,16.0,21.0,87,-99.99,,,-99.99,0.000000,,2013-01-11 14:12:00,
2013-01-11 07:22:00,9.0,6.0,-100.00,WSW,243,16.0,21.0,87,-99.99,,,-99.99,0.000000,,2013-01-11 14:22:00,
2013-01-11 07:33:00,9.0,6.0,-100.00,WSW,245,18.0,24.0,87,-99.99,,,-99.99,0.000000,,2013-01-11 14:33:00,
2013-01-11 07:42:00,8.0,5.0,-100.00,WSW,249,21.0,27.0,87,-99.99,,,-99.99,0.000000,,2013-01-11 14:42:00,
2013-01-11 07:53:00,8.0,6.0,-100.00,SW,236,21.0,25.0,87,-99.99,,,-99.99,0.030000,,2013-01-11 14:53:00,
2013-01-11 08:03:00,8.0,5.0,-100.00,WSW,246,18.0,27.0,87,-99.99,,,-99.99,0.490000,,2013-01-11 15:03:00,
2013-01-11 08:12:00,8.0,5.0,-100.00,WSW,253,23.0,27.0,87,-99.99,,,-99.99,1.720000,,2013-01-11 15:12:00,
2013-01-11 08:22:00,8.0,5.0,-100.00,WSW,253,23.0,27.0,87,-99.99,,,-99.99,1.720000,,2013-01-11 15:22:00,
2013-01-11 08:32:00,8.0,5.0,-100.00,WSW,241,21.0,30.0,87,-99.99,,,-99.99,3.530000,,2013-01-11 15:32:00,
2013-01-11 08:42:00,9.0,6.0,-100.00,WSW,241,20.0,29.0,87,-99.99,,,-99.99,11.810000,,2013-01-11 15:42:00,
2013-01-11 08:52:00,9.0,6.0,-100.00,WSW,242,20.0,29.0,88,-99.99,,,-99.99,17.610001,,2013-01-11 15:52:00,
2013-01-11 09:02:00,9.0,6.0,-100.00,WSW,240,25.0,31.0,87,-99.99,,,-99.99,23.540001,,2013-01-11 16:02:00,
2013-01-11 09:12:00,9.0,6.0,-100.00,WSW,245,20.0,31.0,88,-99.99,,,-99.99,42.860001,,2013-01-11 16:12:00,
2013-01-11 09:22:00,9.0,6.0,-100.00,WSW,245,20.0,31.0,88,-99.99,,,-99.99,42.860001,,2013-01-11 16:22:00,
2013-01-11 09:32:00,9.0,6.0,-100.00,SW,235,19.0,24.0,88,-99.99,,,-99.99,102.500000,,2013-01-11 16:32:00,
2013-01-11 09:42:00,9.0,7.0,-100.00,WSW,238,21.0,29.0,88,-99.99,,,-99.99,116.000000,,2013-01-11 16:42:00,
2013-01-11 09:52:00,9.0,7.0,-100.00,SW,228,25.0,31.0,88,-99.99,,,-99.99,122.699997,,2013-01-11 16:52:00,
2013-01-11 10:02:00,9.0,7.0,-100.00,SW,228,25.0,31.0,88,-99.99,,,-99.99,122.699997,,2013-01-11 17:02:00,
2013-01-11 10:12:00,10.0,7.0,-100.00,SW,232,24.0,30.0,88,-99.99,,,-99.99,152.800003,,2013-01-11 17:12:00,
2013-01-11 10:22:00,10.0,7.0,-100.00,SW,232,24.0,30.0,88,-99.99,,,-99.99,152.800003,,2013-01-11 17:22:00,
2013-01-11 10:33:00,10.0,7.0,-100.00,SW,235,22.0,32.0,88,-99.99,,,-99.99,110.699997,,2013-01-11 17:33:00,
2013-01-11 10:42:00,10.0,7.0,-100.00,WSW,239,20.0,28.0,88,-99.99,,,-99.99,153.500000,,2013-01-11 17:42:00,
2013-01-11 10:52:00,10.0,7.0,-100.00,SW,231,22.0,29.0,88,-99.99,,,-99.99,195.399994,,2013-01-11 17:52:00,
2013-01-11 11:02:00,10.0,7.0,-100.00,SW,231,22.0,29.0,88,-99.99,,,-99.99,195.399994,,2013-01-11 18:02:00,
2013-01-11 11:12:00,10.0,7.0,-100.00,SW,231,27.0,32.0,88,-99.99,,,-99.99,230.199997,,2013-01-11 18:12:00,
2013-01-11 11:22:00,10.0,8.0,-100.00,WSW,238,24.0,30.0,88,-99.99,,,-99.99,257.200012,,2013-01-11 18:22:00,
2013-01-11 11:32:00,10.0,8.0,-100.00,SW,233,21.0,32.0,88,-99.99,,,-99.99,193.300003,,2013-01-11 18:32:00,
2013-01-11 11:42:00,10.0,8.0,-100.00,SW,233,21.0,32.0,88,-99.99,,,-99.99,193.300003,,2013-01-11 18:42:00,
2013-01-11 11:53:00,11.0,8.0,-100.00,WSW,241,17.0,28.0,88,-99.99,,,-99.99,218.100006,,2013-01-11 18:53:00,
2013-01-11 12:02:00,11.0,8.0,-100.00,SW,232,21.0,28.0,88,-99.99,,,-99.99,207.600006,,2013-01-11 19:02:00,
2013-01-11 12:12:00,11.0,8.0,-100.00,SW,228,24.0,32.0,88,-99.99,,,-99.99,328.799988,,2013-01-11 19:12:00,
2013-01-11 12:22:00,11.0,8.0,-100.00,SW,228,24.0,32.0,88,-99.99,,,-99.99,328.799988,,2013-01-11 19:22:00,
2013-01-11 12:32:00,11.0,8.0,-100.00,WSW,243,20.0,29.0,88,-99.99,,,-99.99,221.399994,,2013-01-11 19:32:00,
2013-01-11 12:42:00,11.0,8.0,-100.00,SW,230,17.0,29.0,88,-99.99,,,-99.99,190.699997,,2013-01-11 19:42:00,
2013-01-11 12:52:00,11.0,8.0,-100.00,SW,230,17.0,29.0,88,-99.99,,,-99.99,190.699997,,2013-01-11 19:52:00,
2013-01-11 13:02:00,11.0,8.0,-100.00,SW,224,23.0,26.0,88,-99.99,,,-99.99,312.600006,,2013-01-11 20:02:00,
2013-01-11 13:32:00,11.0,8.0,-100.00,WSW,237,23.0,31.0,88,-99.99,,,-99.99,334.100006,,2013-01-11 20:32:00,
2013-01-11 13:43:00,11.0,9.0,-100.00,WSW,245,17.0,25.0,88,-99.99,,,-99.99,262.600006,,2013-01-11 20:43:00,
2013-01-11 13:52:00,11.0,9.0,-100.00,SW,231,20.0,26.0,88,-99.99,,,-99.99,270.700012,,2013-01-11 20:52:00,
2013-01-11 14:02:00,11.0,8.0,-100.00,WSW,237,21.0,29.0,88,-99.99,,,-99.99,207.199997,,2013-01-11 21:02:00,
2013-01-11 14:12:00,11.0,8.0,-100.00,SW,232,18.0,27.0,88,-99.99,,,-99.99,152.000000,,2013-01-11 21:12:00,
2013-01-11 14:22:00,11.0,8.0,-100.00,SW,232,18.0,27.0,88,-99.99,,,-99.99,152.000000,,2013-01-11 21:22:00,
2013-01-11 14:32:00,11.0,8.0,-100.00,SW,233,19.0,30.0,88,-99.99,,,-99.99,153.399994,,2013-01-11 21:32:00,
2013-01-11 14:42:00,10.0,8.0,-100.00,SW,232,19.0,29.0,88,-99.99,,,-99.99,136.500000,,2013-01-11 21:42:00,
2013-01-11 15:12:00,10.0,8.0,-100.00,WSW,243,19.0,26.0,88,-99.99,,,-99.99,172.899994,,2013-01-11 22:12:00,
2013-01-11 15:22:00,10.0,8.0,-100.00,WSW,243,19.0,26.0,88,-99.99,,,-99.99,172.899994,,2013-01-11 22:22:00,
2013-01-11 15:32:00,10.0,8.0,-100.00,SW,236,17.0,23.0,88,-99.99,,,-99.99,140.399994,,2013-01-11 22:32:00,
2013-01-11 15:42:00,10.0,7.0,-100.00,WSW,239,16.0,23.0,88,-99.99,,,-99.99,69.820000,,2013-01-11 22:42:00,
2013-01-11 16:02:00,10.0,7.0,-100.00,SW,236,20.0,28.0,88,-99.99,,,-99.99,84.300003,,2013-01-11 23:02:00,
2013-01-11 16:12:00,10.0,7.0,-100.00,WSW,247,20.0,25.0,88,-99.99,,,-99.99,63.049999,,2013-01-11 23:12:00,
2013-01-11 16:22:00,10.0,7.0,-100.00,WSW,247,20.0,25.0,88,-99.99,,,-99.99,63.049999,,2013-01-11 23:22:00,
2013-01-11 16:52:00,10.0,7.0,-100.00,SW,233,20.0,30.0,88,-99.99,,,-99.99,39.180000,,2013-01-11 23:52:00,
2013-01-11 17:02:00,10.0,7.0,-100.00,SW,226,19.0,24.0,88,-99.99,,,-99.99,22.830000,,2013-01-12 00:02:00,
2013-01-11 17:12:00,9.0,7.0,-100.00,SW,233,16.0,24.0,88,-99.99,,,-99.99,17.990000,,2013-01-12 00:12:00,
2013-01-11 17:22:00,9.0,7.0,-100.00,SW,233,16.0,24.0,88,-99.99,,,-99.99,17.990000,,2013-01-12 00:22:00,
2013-01-11 17:32:00,10.0,7.0,-100.00,SW,233,18.0,23.0,88,-99.99,,,-99.99,7.590000,,2013-01-12 00:32:00,
2013-01-11 17:42:00,10.0,7.0,-100.00,SW,235,17.0,21.0,88,-99.99,,,-99.99,3.300000,,2013-01-12 00:42:00,
2013-01-11 17:52:00,9.0,6.0,-100.00,WSW,251,18.0,23.0,88,-99.99,,,-99.99,1.610000,,2013-01-12 00:52:00,
2013-01-11 18:02:00,9.0,6.0,-100.00,SW,236,18.0,23.0,88,-99.99,,,-99.99,0.510000,,2013-01-12 01:02:00,
2013-01-11 18:32:00,10.0,7.0,-100.00,SW,234,20.0,26.0,88,-99.99,,,-99.99,0.000000,,2013-01-12 01:32:00,
2013-01-11 18:42:00,10.0,7.0,-100.00,WSW,255,16.0,20.0,88,-99.99,,,-99.99,0.000000,,2013-01-12 01:42:00,
2013-01-11 20:42:00,9.0,6.0,-100.00,SW,225,20.0,24.0,88,-99.99,,,-99.99,0.000000,,2013-01-12 03:42:00,
2013-01-11 21:12:00,9.0,6.0,-100.00,SW,233,22.0,28.0,87,-99.99,,,-99.99,0.000000,,2013-01-12 04:12:00,
2013-01-11 21:22:00,9.0,6.0,-100.00,SW,233,22.0,28.0,87,-99.99,,,-99.99,0.000000,,2013-01-12 04:22:00,
2013-01-11 21:32:00,9.0,6.0,-100.00,WSW,237,17.0,27.0,87,-99.99,,,-99.99,0.000000,,2013-01-12 04:32:00,
2013-01-11 21:42:00,8.0,5.0,-100.00,SW,232,16.0,23.0,87,-99.99,,,-99.99,0.000000,,2013-01-12 04:42:00,
2013-01-11 22:12:00,8.0,5.0,-100.00,SW,235,16.0,23.0,87,-99.99,,,-99.99,0.000000,,2013-01-12 05:12:00,
2013-01-11 22:22:00,8.0,5.0,-100.00,SW,235,16.0,23.0,87,-99.99,,,-99.99,0.000000,,2013-01-12 05:22:00,
2013-01-11 22:32:00,8.0,5.0,-100.00,SW,236,20.0,22.0,87,-99.99,,,-99.99,0.000000,,2013-01-12 05:32:00,
2013-01-11 22:42:00,8.0,5.0,-100.00,SW,236,20.0,22.0,87,-99.99,,,-99.99,0.000000,,2013-01-12 05:42:00,
2013-01-11 22:52:00,7.0,4.0,-100.00,WSW,239,18.0,20.0,87,-99.99,,,-99.99,0.000000,,2013-01-12 05:52:00,
2013-01-11 23:02:00,7.0,4.0,-100.00,WSW,239,18.0,20.0,87,-99.99,,,-99.99,0.000000,,2013-01-12 06:02:00,
2013-01-11 23:12:00,7.0,4.0,-100.00,SW,235,15.0,22.0,87,-99.99,,,-99.99,0.000000,,2013-01-12 06:12:00,
2013-01-11 23:22:00,7.0,4.0,-100.00,SW,231,12.0,20.0,87,-99.99,,,-99.99,0.000000,,2013-01-12 06:22:00,
2013-01-11 23:42:00,7.0,4.0,-100.00,WSW,249,14.0,17.0,87,-99.99,,,-99.99,0.000000,,2013-01-12 06:42:00,
2013-01-11 23:52:00,7.0,4.0,-100.00,WSW,245,10.0,17.0,87,-99.99,,,-99.99,0.000000,,2013-01-12 06:52:00,